Gresham, WI (54128)

8:31 PM CST on January 22, 2017 (GMT -0600)
Willow Wood | | Change Station
Active Advisory: Special Statement

Elev 810 ft 44.79 °N, 88.58 °W | Updated 54 seconds ago

Overcast
Overcast
35.1 °F
Feels Like 35 °F
N
0.0
Wind Variable Wind from North
Gusts 1.2 mph

Today
High -- | Low -- °F
--% Chance of Precip.
Yesterday
High -- | Low -- °F
Precip. -- in
Pressure 29.69 in
Visibility 5.0 miles
Clouds Overcast 1300 ft
Windchill 35 °F
Dew Point 35 °F
Humidity 98%
Rainfall 0.00 in
Snow Depth Not available.
7:24 AM 4:49 PM
Waning Crescent, 22% visible
METAR KEZS 230215Z AUTO 00000KT 5SM BR OVC013 03/03 A2969 RMK AO2 T00320026
Pressure 29.69 in
Visibility 5.0 miles
Clouds Overcast 1300 ft
Windchill 35 °F
Dew Point 35 °F
Humidity 98%
Rainfall 0.00 in
Snow Depth Not available.
7:24 AM 4:49 PM
Waning Crescent, 22% visible
METAR KEZS 230215Z AUTO 00000KT 5SM BR OVC013 03/03 A2969 RMK AO2 T00320026

Get Your Daily Forecast Email!

Thanks for signing up!

Be on the lookout for a verification email in your inbox.

You'll start receiving the daily forecast at 8 AM.

×

10-Day Weather Forecast

Almanac

Astronomy

Jan. 22, 2017 Rise Set
Actual Time
Civil Twilight
Nautical Twilight
Astronomical Twilight
Moon
Length of Visible Light
Length of Day
Tomorrow will be .
, % of the Moon is Illuminated

Today's Extremes

State Highs State Lows

Community

WunderPhotos

Upload Photos

1,962,540 photos uploaded!

WunderBlog® & News

Nearby

Air Quality

  Air Quality AQ Index Pollutant
Not available.

Snow Depth

Station Depth Elevation

Earthquake Activity

City Distance Mag. Time & Date
Minimum magnitude displayed is 2.5.

Coastal Water Temperatures

Place Temperature

Stations

Nearby Weather Stations

Station Location Temp. Windchill Dew Point Humidity Wind Precip. Elev Updated Type
                   

Watches & Warnings

Special Statement
Issued: 6:15 PM CST Jan. 22, 2017 – National Weather Service

... Patchy dense fog again tonight across northeast and central
Wisconsin...

Patchy dense fog is expected tonight across parts of northeast
and central Wisconsin. Visibility could drop to one-quarter mile
at times.

Motorist are urged to slow down and use low beam headlights if
dense fog is encountered.



615 PM CST sun Jan 22 2017

... Patchy dense fog again tonight across northeast and central
Wisconsin...

Patchy dense fog is expected tonight across parts of northeast
and central Wisconsin. Visibility could drop to one-quarter mile
at times.

Motorist are urged to slow down and use low beam headlights if
dense fog is encountered.